createdAt,value
2019-04-07T00:00:26.522Z,56.76
2019-04-07T00:00:59.792Z,56.65
2019-04-07T00:01:37.776Z,56.84
2019-04-07T00:02:09.344Z,56.92
2019-04-07T00:02:42.475Z,57.01
2019-04-07T00:03:16.538Z,57.02
2019-04-07T00:03:48.321Z,56.97
2019-04-07T00:04:20.285Z,57.00
2019-04-07T00:04:52.141Z,57.03
2019-04-07T00:05:25.629Z,56.83
2019-04-07T00:05:57.514Z,56.95
2019-04-07T00:06:31.642Z,57.08
2019-04-07T00:07:03.775Z,56.90
2019-04-07T00:07:36.939Z,57.07
2019-04-07T00:08:10.170Z,57.20
2019-04-07T00:08:41.371Z,57.29
2019-04-07T00:09:12.637Z,57.32
2019-04-07T00:09:45.795Z,57.28
2019-04-07T00:10:19.245Z,57.28
2019-04-07T00:10:50.596Z,57.31
2019-04-07T00:11:25.578Z,57.42
2019-04-07T00:11:59.137Z,57.47
2019-04-07T00:12:31.013Z,57.35
2019-04-07T00:13:02.870Z,57.15
2019-04-07T00:13:36.496Z,57.20
2019-04-07T00:14:07.691Z,57.12
2019-04-07T00:14:41.028Z,57.20
2019-04-07T00:15:12.181Z,57.20
2019-04-07T00:15:43.419Z,57.15
2019-04-07T00:16:14.603Z,57.17
2019-04-07T00:16:48.339Z,57.00
2019-04-07T00:17:20.619Z,57.16
2019-04-07T00:17:54.352Z,57.19
2019-04-07T00:18:31.272Z,57.25
2019-04-07T00:19:02.515Z,57.34
2019-04-07T00:19:33.942Z,57.42
2019-04-07T00:20:08.868Z,57.70
2019-04-07T00:20:40.283Z,57.70
2019-04-07T00:21:11.608Z,57.69
2019-04-07T00:21:42.968Z,57.93
2019-04-07T00:22:18.793Z,57.91
2019-04-07T00:22:50.061Z,58.06
2019-04-07T00:23:21.378Z,58.08
2019-04-07T00:23:54.552Z,58.22
2019-04-07T00:24:27.697Z,58.25
2019-04-07T00:24:59.534Z,58.35
2019-04-07T00:25:30.968Z,58.36
2019-04-07T00:26:02.293Z,58.40
2019-04-07T00:26:33.782Z,58.56
2019-04-07T00:27:10.281Z,58.33
2019-04-07T00:27:41.518Z,58.17
2019-04-07T00:28:12.785Z,58.39
2019-04-07T00:28:44.019Z,58.33
2019-04-07T00:29:15.565Z,58.35
2019-04-07T00:29:46.985Z,58.32
2019-04-07T00:30:20.294Z,58.29
2019-04-07T00:30:51.510Z,58.21
2019-04-07T00:31:22.833Z,58.08
2019-04-07T00:31:55.995Z,58.23
2019-04-07T00:32:27.368Z,58.29
2019-04-07T00:33:00.861Z,58.29
2019-04-07T00:33:33.529Z,58.31
2019-04-07T00:34:05.256Z,58.49
2019-04-07T00:34:36.884Z,58.52
2019-04-07T00:35:08.244Z,58.52
2019-04-07T00:35:42.835Z,58.65
2019-04-07T00:36:16.539Z,58.37
2019-04-07T00:36:47.822Z,58.50
2019-04-07T00:37:19.100Z,58.34
2019-04-07T00:37:50.345Z,58.58
2019-04-07T00:38:21.602Z,58.45
2019-04-07T00:38:52.828Z,58.42
2019-04-07T00:39:23.986Z,58.43
2019-04-07T00:40:00.000Z,58.38
2019-04-07T00:40:31.159Z,58.39
2019-04-07T00:41:04.603Z,58.32
2019-04-07T00:41:36.427Z,58.45
2019-04-07T00:42:09.657Z,58.41
2019-04-07T00:42:41.321Z,58.32
2019-04-07T00:43:13.606Z,58.25
2019-04-07T00:43:44.920Z,58.30
2019-04-07T00:44:18.064Z,58.30
2019-04-07T00:44:49.678Z,58.15
2019-04-07T00:45:21.502Z,58.37
2019-04-07T00:45:54.676Z,58.32
2019-04-07T00:46:27.957Z,58.44
2019-04-07T00:46:59.791Z,58.36
2019-04-07T00:47:31.415Z,58.31
2019-04-07T00:48:04.496Z,58.15
2019-04-07T00:48:37.613Z,58.10
2019-04-07T00:49:13.837Z,58.21
2019-04-07T00:49:46.568Z,58.12
2019-04-07T00:50:20.730Z,58.21
2019-04-07T00:50:51.977Z,58.22
2019-04-07T00:51:23.226Z,57.79
2019-04-07T00:51:55.831Z,58.24
2019-04-07T00:52:27.319Z,58.05
2019-04-07T00:53:01.273Z,58.19
2019-04-07T00:53:32.594Z,58.10
2019-04-07T00:54:06.172Z,58.16
2019-04-07T00:54:38.418Z,58.04
2019-04-07T00:55:09.966Z,58.08
2019-04-07T00:55:41.746Z,58.06
2019-04-07T00:56:15.823Z,58.05
2019-04-07T00:56:47.014Z,58.11
2019-04-07T00:57:19.886Z,58.29
2019-04-07T00:57:53.707Z,58.43
2019-04-07T00:58:24.936Z,58.66
2019-04-07T00:58:56.171Z,58.84
2019-04-07T00:59:28.680Z,58.94
2019-04-07T01:00:00.450Z,59.07
2019-04-07T01:00:33.775Z,59.17
2019-04-07T01:01:06.314Z,59.23
2019-04-07T01:01:38.193Z,59.33
2019-04-07T01:02:10.580Z,59.29
2019-04-07T01:02:42.996Z,59.38
2019-04-07T01:03:15.214Z,59.38
2019-04-07T01:03:46.506Z,59.26
2019-04-07T01:04:17.715Z,59.49
2019-04-07T01:04:49.035Z,59.39
2019-04-07T01:05:33.707Z,59.26
2019-04-07T01:05:54.470Z,59.31
2019-04-07T01:06:26.149Z,59.31
2019-04-07T01:07:01.698Z,59.28
2019-04-07T01:07:33.437Z,59.28
2019-04-07T01:08:05.217Z,59.43
2019-04-07T01:08:37.484Z,59.61
2019-04-07T01:09:09.141Z,59.61
2019-04-07T01:09:40.368Z,59.65
2019-04-07T01:10:11.516Z,59.59
2019-04-07T01:10:44.608Z,59.75
2019-04-07T01:11:20.297Z,59.90
2019-04-07T01:11:56.112Z,59.78
2019-04-07T01:12:29.342Z,59.76
2019-04-07T01:13:01.047Z,59.76
2019-04-07T01:13:32.253Z,59.77
2019-04-07T01:14:03.432Z,59.77
2019-04-07T01:14:36.793Z,59.71
2019-04-07T01:15:09.911Z,59.70
2019-04-07T01:15:41.717Z,59.48
2019-04-07T01:16:13.150Z,59.43
2019-04-07T01:16:45.538Z,59.64
2019-04-07T01:17:16.838Z,59.64
2019-04-07T01:17:48.701Z,59.74
2019-04-07T01:18:25.796Z,59.78
2019-04-07T01:18:57.178Z,59.88
2019-04-07T01:19:30.001Z,60.01
2019-04-07T01:20:07.364Z,60.12
2019-04-07T01:20:40.536Z,60.32
2019-04-07T01:21:11.739Z,60.37
2019-04-07T01:21:43.547Z,60.74
2019-04-07T01:22:15.409Z,60.65
2019-04-07T01:22:47.360Z,60.81
2019-04-07T01:23:19.215Z,60.85
2019-04-07T01:23:51.065Z,60.89
2019-04-07T01:24:24.384Z,60.62
2019-04-07T01:24:57.445Z,60.98
2019-04-07T01:25:29.264Z,61.06
2019-04-07T01:26:03.150Z,61.10
2019-04-07T01:26:37.172Z,61.10
2019-04-07T01:27:08.356Z,60.82
2019-04-07T01:27:40.080Z,60.72
2019-04-07T01:28:12.042Z,60.81
2019-04-07T01:28:45.631Z,60.70
2019-04-07T01:29:18.792Z,60.72
2019-04-07T01:29:50.662Z,60.86
2019-04-07T01:30:23.875Z,60.86
2019-04-07T01:30:55.149Z,60.97
2019-04-07T01:31:26.413Z,61.19
2019-04-07T01:32:01.832Z,61.19
2019-04-07T01:32:33.067Z,61.38
2019-04-07T01:33:04.467Z,61.28
2019-04-07T01:33:35.618Z,61.47
2019-04-07T01:34:07.517Z,61.47
2019-04-07T01:34:40.714Z,61.51
2019-04-07T01:35:13.763Z,61.28
2019-04-07T01:35:49.219Z,61.28
2019-04-07T01:36:20.111Z,61.41
2019-04-07T01:36:53.474Z,60.98
2019-04-07T01:37:26.295Z,61.27
2019-04-07T01:37:57.464Z,61.27
2019-04-07T01:38:29.075Z,61.15
2019-04-07T01:39:00.842Z,61.23
2019-04-07T01:39:34.953Z,61.23
2019-04-07T01:40:06.266Z,61.25
2019-04-07T01:40:37.459Z,61.22
2019-04-07T01:41:23.725Z,61.38
2019-04-07T01:41:59.711Z,61.35
2019-04-07T01:42:33.420Z,61.40
2019-04-07T01:43:09.226Z,61.28
2019-04-07T01:43:42.482Z,61.19
2019-04-07T01:44:27.655Z,61.19
2019-04-07T01:45:18.113Z,61.09
2019-04-07T01:45:49.944Z,61.01
2019-04-07T01:46:39.420Z,60.72
2019-04-07T01:47:21.039Z,60.59
2019-04-07T01:48:12.638Z,60.76
2019-04-07T01:48:45.783Z,60.92
2019-04-07T01:49:27.235Z,60.89
2019-04-07T01:50:17.385Z,60.89
2019-04-07T01:50:57.122Z,61.22
2019-04-07T01:51:30.979Z,61.22
2019-04-07T01:52:13.043Z,61.57
2019-04-07T01:52:47.260Z,61.54
2019-04-07T01:53:32.395Z,61.54
2019-04-07T01:54:08.702Z,61.69
2019-04-07T01:55:00.167Z,61.56
2019-04-07T01:55:37.485Z,61.35
2019-04-07T01:56:14.046Z,61.57
2019-04-07T01:56:53.991Z,61.57
2019-04-07T01:57:36.894Z,61.51
2019-04-07T01:58:08.127Z,61.52
2019-04-07T01:58:39.275Z,61.52
2019-04-07T01:59:28.895Z,61.17
2019-04-07T02:00:00.758Z,61.17
2019-04-07T02:00:34.879Z,61.27
2019-04-07T02:01:19.879Z,61.27
2019-04-07T02:02:13.538Z,61.61
2019-04-07T02:02:46.691Z,61.71
2019-04-07T02:03:20.367Z,61.54
2019-04-07T02:04:00.184Z,61.85
2019-04-07T02:04:33.572Z,61.85
2019-04-07T02:05:24.284Z,61.90
2019-04-07T02:06:06.743Z,61.90
2019-04-07T02:06:50.199Z,61.97
2019-04-07T02:07:24.616Z,61.79
2019-04-07T02:08:15.521Z,61.79
2019-04-07T02:08:48.584Z,61.88
2019-04-07T02:09:22.574Z,61.88
2019-04-07T02:09:55.720Z,61.94
2019-04-07T02:10:29.069Z,62.09
2019-04-07T02:11:08.337Z,62.09
2019-04-07T02:11:50.474Z,62.24
2019-04-07T02:12:35.047Z,62.28
2019-04-07T02:13:08.553Z,62.28
2019-04-07T02:13:46.758Z,62.13
2019-04-07T02:14:27.731Z,62.04
2019-04-07T02:15:03.875Z,62.04
2019-04-07T02:15:37.234Z,62.03
2019-04-07T02:16:10.439Z,62.18
2019-04-07T02:16:44.218Z,62.18
2019-04-07T02:17:20.263Z,61.98
2019-04-07T02:18:03.603Z,62.21
2019-04-07T02:18:35.402Z,62.25
2019-04-07T02:19:09.649Z,62.36
2019-04-07T02:19:46.066Z,62.36
2019-04-07T02:20:41.239Z,62.08
2019-04-07T02:21:17.387Z,62.04
2019-04-07T02:21:57.286Z,62.19
2019-04-07T02:22:40.792Z,62.10
2019-04-07T02:23:16.498Z,62.28
2019-04-07T02:23:49.631Z,62.28
2019-04-07T02:24:38.899Z,62.17
2019-04-07T02:25:19.934Z,62.30
2019-04-07T02:25:53.185Z,62.41
2019-04-07T02:26:33.257Z,62.41
2019-04-07T02:27:09.864Z,62.40
2019-04-07T02:27:49.051Z,62.58
2019-04-07T02:28:23.030Z,62.55
2019-04-07T02:29:04.983Z,62.55
2019-04-07T02:29:54.357Z,62.55
2019-04-07T02:30:33.369Z,62.58
2019-04-07T02:31:25.024Z,62.58
2019-04-07T02:32:00.175Z,62.56
2019-04-07T02:32:31.502Z,62.56
2019-04-07T02:33:09.328Z,62.47
2019-04-07T02:33:59.958Z,62.62
2019-04-07T02:34:34.060Z,62.62
2019-04-07T02:35:08.708Z,62.62
2019-04-07T02:35:42.284Z,62.69
2019-04-07T02:36:23.916Z,62.70
2019-04-07T02:37:09.997Z,62.79
2019-04-07T02:37:55.068Z,62.70
2019-04-07T02:38:31.638Z,62.70
2019-04-07T02:39:22.044Z,62.82
2019-04-07T02:40:11.853Z,62.82
2019-04-07T02:40:47.211Z,62.70
2019-04-07T02:41:27.447Z,63.00
2019-04-07T02:42:17.160Z,62.83
2019-04-07T02:42:56.306Z,62.80
2019-04-07T02:43:32.753Z,62.90
2019-04-07T02:44:06.869Z,62.90
2019-04-07T02:44:57.307Z,63.00
2019-04-07T02:45:36.615Z,63.13
2019-04-07T02:46:15.761Z,63.06
2019-04-07T02:46:56.765Z,63.17
2019-04-07T02:47:35.615Z,63.33
2019-04-07T02:48:25.161Z,63.35
2019-04-07T02:49:01.868Z,63.35
2019-04-07T02:49:41.172Z,63.39
2019-04-07T02:50:15.414Z,63.61
2019-04-07T02:50:54.954Z,63.61
2019-04-07T02:51:28.109Z,63.46
2019-04-07T02:52:11.298Z,63.78
2019-04-07T02:53:01.536Z,63.78
2019-04-07T02:53:33.145Z,63.58
2019-04-07T02:54:10.778Z,63.64
2019-04-07T02:54:57.883Z,63.64
2019-04-07T02:55:39.556Z,63.61
2019-04-07T02:56:13.356Z,63.79
2019-04-07T02:56:58.167Z,63.75
2019-04-07T02:57:34.161Z,63.80
2019-04-07T02:58:10.365Z,63.80
2019-04-07T02:59:00.061Z,63.55
2019-04-07T02:59:35.331Z,63.50
2019-04-07T03:00:07.591Z,63.50
2019-04-07T03:00:41.378Z,63.67
2019-04-07T03:01:18.057Z,63.63
2019-04-07T03:01:57.446Z,63.57
2019-04-07T03:02:36.410Z,63.57
2019-04-07T03:03:13.032Z,63.52
2019-04-07T03:04:03.763Z,63.52
2019-04-07T03:04:44.451Z,63.49
2019-04-07T03:05:20.973Z,63.21
2019-04-07T03:06:04.963Z,63.58
2019-04-07T03:06:54.808Z,63.58
2019-04-07T03:07:36.059Z,63.59
2019-04-07T03:08:10.235Z,63.72
2019-04-07T03:09:00.183Z,63.72
2019-04-07T03:09:52.308Z,63.63
2019-04-07T03:10:31.466Z,63.63
2019-04-07T03:11:07.366Z,63.73
2019-04-07T03:11:56.425Z,63.89
2019-04-07T03:12:27.799Z,63.95
2019-04-07T03:13:16.660Z,63.95
2019-04-07T03:14:00.196Z,63.76
2019-04-07T03:14:37.244Z,63.87
2019-04-07T03:15:13.410Z,63.87
2019-04-07T03:15:46.571Z,63.86
2019-04-07T03:16:22.593Z,64.00
2019-04-07T03:17:13.815Z,64.00
2019-04-07T03:17:50.061Z,63.85
2019-04-07T03:18:31.627Z,63.85
2019-04-07T03:19:10.956Z,63.52
2019-04-07T03:19:58.946Z,63.52
2019-04-07T03:20:36.190Z,63.52
2019-04-07T03:21:10.340Z,63.48
2019-04-07T03:21:44.211Z,63.48
2019-04-07T03:22:33.768Z,63.33
2019-04-07T03:23:09.486Z,63.38
2019-04-07T03:23:53.319Z,63.22
2019-04-07T03:24:30.537Z,63.28
2019-04-07T03:25:15.687Z,63.16
2019-04-07T03:25:51.549Z,63.26
2019-04-07T03:26:29.325Z,63.26
2019-04-07T03:27:05.849Z,63.24
2019-04-07T03:27:52.703Z,63.24
2019-04-07T03:28:26.272Z,63.36
2019-04-07T03:29:01.217Z,63.21
2019-04-07T03:29:38.514Z,63.21
2019-04-07T03:30:14.549Z,63.30
2019-04-07T03:31:02.110Z,63.26
2019-04-07T03:31:39.042Z,63.26
2019-04-07T03:32:15.862Z,63.45
2019-04-07T03:33:06.030Z,63.38
2019-04-07T03:33:54.278Z,63.38
2019-04-07T03:34:32.635Z,63.49
2019-04-07T03:35:15.053Z,63.71
2019-04-07T03:35:50.966Z,63.71
2019-04-07T03:37:09.898Z,63.82
2019-04-07T03:37:33.348Z,63.83
2019-04-07T03:38:12.119Z,64.19
2019-04-07T03:38:46.088Z,64.34
2019-04-07T03:39:31.867Z,64.45
2019-04-07T03:40:15.701Z,64.64
2019-04-07T03:40:49.850Z,64.64
2019-04-07T03:41:23.850Z,64.75
2019-04-07T03:41:55.545Z,64.78
2019-04-07T03:42:26.823Z,64.78
2019-04-07T03:43:19.921Z,64.98
2019-04-07T03:43:55.898Z,64.98
2019-04-07T03:44:32.305Z,64.92
2019-04-07T03:45:10.148Z,65.09
2019-04-07T03:45:46.312Z,65.09
2019-04-07T03:46:37.545Z,64.95
2019-04-07T03:47:16.623Z,65.09
2019-04-07T03:47:54.726Z,65.12
2019-04-07T03:48:47.907Z,65.12
2019-04-07T03:49:23.483Z,65.23
2019-04-07T03:50:03.388Z,65.39
2019-04-07T03:50:38.658Z,65.44
2019-04-07T03:51:15.025Z,65.54
2019-04-07T03:51:50.139Z,65.54
2019-04-07T03:52:40.495Z,65.45
2019-04-07T03:53:20.126Z,65.34
2019-04-07T03:53:56.927Z,65.47
2019-04-07T03:54:37.818Z,65.25
2019-04-07T03:55:08.741Z,65.52
2019-04-07T03:55:59.979Z,65.36
2019-04-07T03:56:49.890Z,65.36
2019-04-07T03:57:46.373Z,65.09
2019-04-07T03:58:28.289Z,65.09
2019-04-07T03:59:07.621Z,64.70
2019-04-07T03:59:46.797Z,64.47
2019-04-07T04:01:17.986Z,64.44
2019-04-07T04:01:49.676Z,64.42
2019-04-07T04:02:33.306Z,64.42
2019-04-07T04:03:06.727Z,64.33
2019-04-07T04:03:59.201Z,64.33
2019-04-07T04:04:41.569Z,64.62
2019-04-07T04:05:20.726Z,64.64
2019-04-07T04:05:53.886Z,64.68
2019-04-07T04:06:43.478Z,64.68
2019-04-07T04:07:29.372Z,64.82
2019-04-07T04:07:57.982Z,64.91
2019-04-07T04:08:31.756Z,64.91
2019-04-07T04:09:19.768Z,65.17
2019-04-07T04:09:53.948Z,65.17
2019-04-07T04:10:36.471Z,65.02
2019-04-07T04:11:09.971Z,64.92
2019-04-07T04:11:43.699Z,64.92
2019-04-07T04:12:21.282Z,64.89
2019-04-07T04:13:03.768Z,64.98
2019-04-07T04:13:39.679Z,64.81
2019-04-07T04:14:37.980Z,64.81
2019-04-07T04:15:11.993Z,64.91
2019-04-07T04:15:45.210Z,64.71
2019-04-07T04:16:18.070Z,64.78
2019-04-07T04:16:53.031Z,64.78
2019-04-07T04:17:25.008Z,64.82
2019-04-07T04:18:03.489Z,64.91
2019-04-07T04:18:37.474Z,65.00
2019-04-07T04:19:11.998Z,64.81
2019-04-07T04:19:45.128Z,64.95
2019-04-07T04:20:17.429Z,64.95
2019-04-07T04:20:48.665Z,65.38
2019-04-07T04:21:22.102Z,65.38
2019-04-07T04:22:02.123Z,64.78
2019-04-07T04:22:35.948Z,64.78
2019-04-07T04:23:09.063Z,64.91
2019-04-07T04:23:42.944Z,64.85
2019-04-07T04:24:18.530Z,64.95
2019-04-07T04:24:57.644Z,65.08
2019-04-07T04:25:34.081Z,65.21
2019-04-07T04:26:06.924Z,65.21
2019-04-07T04:26:40.121Z,65.27
2019-04-07T04:27:15.344Z,65.48
2019-04-07T04:27:46.736Z,65.48
2019-04-07T04:28:18.325Z,65.43
2019-04-07T04:28:49.591Z,65.34
2019-04-07T04:29:24.876Z,65.34
2019-04-07T04:29:58.122Z,65.55
2019-04-07T04:30:32.034Z,65.35
2019-04-07T04:31:03.335Z,65.39
2019-04-07T04:31:40.179Z,65.39
2019-04-07T04:32:11.745Z,65.44
2019-04-07T04:32:43.660Z,65.59
2019-04-07T04:33:15.930Z,65.25
2019-04-07T04:33:48.470Z,64.98
2019-04-07T04:34:20.532Z,64.98
2019-04-07T04:34:51.979Z,64.92
2019-04-07T04:35:23.163Z,64.92
2019-04-07T04:35:54.368Z,64.87
2019-04-07T04:36:25.550Z,64.87
2019-04-07T04:36:59.631Z,64.94
2019-04-07T04:37:40.407Z,64.72
2019-04-07T04:38:05.983Z,64.60
2019-04-07T04:38:38.432Z,64.78
2019-04-07T04:39:10.089Z,64.78
2019-04-07T04:39:41.422Z,64.96
2019-04-07T04:40:14.049Z,64.92
2019-04-07T04:40:45.952Z,65.06
2019-04-07T04:41:17.222Z,65.17
2019-04-07T04:41:49.080Z,65.23
2019-04-07T04:42:20.541Z,65.23
2019-04-07T04:42:53.808Z,65.52
2019-04-07T04:43:26.046Z,65.52
2019-04-07T04:43:58.012Z,65.71
2019-04-07T04:44:29.573Z,65.62
2019-04-07T04:45:02.214Z,65.62
2019-04-07T04:45:33.904Z,65.66
2019-04-07T04:46:08.698Z,65.33
2019-04-07T04:46:38.739Z,65.36
2019-04-07T04:47:11.037Z,65.36
2019-04-07T04:47:42.836Z,65.28
2019-04-07T04:48:15.520Z,65.23
2019-04-07T04:48:47.307Z,64.82
2019-04-07T04:49:21.538Z,64.93
2019-04-07T04:49:52.923Z,64.77
2019-04-07T04:50:25.814Z,64.91
2019-04-07T04:50:58.050Z,64.91
2019-04-07T04:51:35.513Z,65.60
2019-04-07T04:52:08.418Z,65.50
2019-04-07T04:52:40.855Z,65.20
2019-04-07T04:53:14.922Z,65.20
2019-04-07T04:53:48.197Z,65.23
2019-04-07T04:54:19.466Z,65.06
2019-04-07T04:54:52.607Z,64.86
2019-04-07T04:55:24.286Z,64.86
2019-04-07T04:55:55.720Z,64.97
2019-04-07T04:56:26.986Z,64.55
2019-04-07T04:57:02.527Z,64.75
2019-04-07T04:57:33.990Z,64.75
2019-04-07T04:58:05.558Z,64.72
2019-04-07T04:58:36.714Z,64.83
2019-04-07T04:59:07.970Z,64.93
2019-04-07T04:59:41.024Z,64.93
2019-04-07T05:00:12.361Z,64.81
2019-04-07T05:00:45.445Z,64.84
2019-04-07T05:01:19.627Z,64.84
2019-04-07T05:01:53.954Z,64.96
2019-04-07T05:02:25.774Z,65.05
2019-04-07T05:02:57.244Z,65.05
2019-04-07T05:03:31.527Z,65.08
2019-04-07T05:04:02.923Z,65.08
2019-04-07T05:04:34.439Z,65.04
2019-04-07T05:05:10.894Z,65.13
2019-04-07T05:05:42.258Z,65.13
2019-04-07T05:06:14.383Z,65.27
2019-04-07T05:06:47.847Z,65.27
2019-04-07T05:07:24.468Z,65.52
2019-04-07T05:08:00.786Z,65.52
2019-04-07T05:08:31.191Z,65.44
2019-04-07T05:09:07.182Z,65.61
2019-04-07T05:09:44.300Z,65.63
2019-04-07T05:10:15.392Z,65.58
2019-04-07T05:10:50.986Z,65.29
2019-04-07T05:11:22.364Z,65.23
2019-04-07T05:11:53.990Z,65.23
2019-04-07T05:12:25.910Z,64.94
2019-04-07T05:12:58.918Z,65.31
2019-04-07T05:13:37.191Z,65.31
2019-04-07T05:14:10.500Z,65.31
2019-04-07T05:14:54.784Z,65.23
2019-04-07T05:15:17.555Z,65.03
2019-04-07T05:15:48.856Z,65.06
2019-04-07T05:16:21.338Z,65.06
2019-04-07T05:16:54.817Z,64.99
2019-04-07T05:17:31.145Z,64.99
2019-04-07T05:18:02.497Z,64.80
2019-04-07T05:18:37.113Z,64.76
2019-04-07T05:19:09.782Z,64.81
2019-04-07T05:19:47.803Z,64.73
2019-04-07T05:20:20.947Z,64.73
2019-04-07T05:20:55.271Z,64.88
2019-04-07T05:21:35.064Z,64.72
2019-04-07T05:22:07.101Z,64.84
2019-04-07T05:22:43.359Z,64.84
2019-04-07T05:23:18.525Z,65.00
2019-04-07T05:23:51.395Z,65.00
2019-04-07T05:24:23.113Z,64.86
2019-04-07T05:24:56.666Z,64.84
2019-04-07T05:25:28.358Z,64.84
2019-04-07T05:26:00.385Z,64.75
2019-04-07T05:26:36.555Z,64.46
2019-04-07T05:27:08.454Z,64.46
2019-04-07T05:27:41.605Z,64.43
2019-04-07T05:28:15.386Z,64.49
2019-04-07T05:28:49.175Z,64.24
2019-04-07T05:29:24.948Z,64.31
2019-04-07T05:29:57.429Z,64.31
2019-04-07T05:30:34.716Z,64.29
2019-04-07T05:31:07.231Z,64.19
2019-04-07T05:31:38.744Z,64.19
2019-04-07T05:32:10.003Z,64.33
2019-04-07T05:32:43.229Z,64.23
2019-04-07T05:33:16.587Z,64.24
2019-04-07T05:33:53.132Z,64.24
2019-04-07T05:34:24.358Z,64.06
2019-04-07T05:34:55.659Z,64.00
2019-04-07T05:35:32.899Z,63.81
2019-04-07T05:36:08.085Z,63.81
2019-04-07T05:36:44.661Z,63.73
2019-04-07T05:37:19.825Z,63.71
2019-04-07T05:38:01.850Z,63.45
2019-04-07T05:38:31.148Z,63.68
2019-04-07T05:39:08.717Z,63.68
2019-04-07T05:39:41.116Z,63.60
2019-04-07T05:40:17.489Z,63.58
2019-04-07T05:40:52.116Z,63.58
2019-04-07T05:41:26.361Z,63.63
2019-04-07T05:41:59.209Z,63.66
2019-04-07T05:42:32.862Z,63.70
2019-04-07T05:43:04.738Z,63.65
2019-04-07T05:43:38.839Z,63.76
2019-04-07T05:44:10.017Z,63.59
2019-04-07T05:44:41.231Z,63.59
2019-04-07T05:45:14.991Z,63.59
2019-04-07T05:45:46.608Z,63.64
2019-04-07T05:46:17.785Z,63.61
2019-04-07T05:46:49.802Z,63.94
2019-04-07T05:47:21.297Z,63.94
2019-04-07T05:47:53.442Z,63.82
2019-04-07T05:48:24.940Z,63.70
2019-04-07T05:48:56.671Z,63.70
2019-04-07T05:49:28.201Z,63.74
2019-04-07T05:50:00.596Z,63.74
2019-04-07T05:50:32.668Z,63.69
2019-04-07T05:51:04.588Z,63.83
2019-04-07T05:51:35.754Z,63.81
2019-04-07T05:52:06.979Z,63.59
2019-04-07T05:52:39.839Z,63.59
2019-04-07T05:53:14.618Z,63.89
2019-04-07T05:53:47.081Z,63.70
2019-04-07T05:54:19.846Z,63.75
2019-04-07T05:54:51.543Z,63.82
2019-04-07T05:55:29.281Z,63.82
2019-04-07T05:56:06.399Z,63.90
2019-04-07T05:56:37.997Z,63.77
2019-04-07T05:57:13.410Z,63.77
2019-04-07T05:57:45.346Z,63.77
2019-04-07T05:58:18.884Z,63.85
2019-04-07T05:58:50.175Z,63.85
2019-04-07T05:59:26.674Z,63.61
2019-04-07T05:59:59.228Z,63.59
2019-04-07T06:00:32.373Z,63.54
2019-04-07T06:01:05.205Z,63.54
2019-04-07T06:01:36.718Z,63.58
2019-04-07T06:02:11.142Z,63.33
2019-04-07T06:02:45.763Z,63.33
2019-04-07T06:03:17.681Z,63.17
2019-04-07T06:03:49.080Z,63.41
2019-04-07T06:04:20.648Z,63.32
2019-04-07T06:04:54.034Z,63.38
2019-04-07T06:05:28.039Z,63.13
2019-04-07T06:06:01.402Z,62.84
2019-04-07T06:06:34.510Z,62.84
2019-04-07T06:07:08.037Z,62.75
2019-04-07T06:07:43.739Z,62.75
2019-04-07T06:08:25.984Z,62.60
2019-04-07T06:08:50.721Z,62.58
2019-04-07T06:09:21.990Z,62.70
2019-04-07T06:09:55.712Z,62.70
2019-04-07T06:10:29.458Z,62.36
2019-04-07T06:11:02.126Z,62.27
2019-04-07T06:11:36.126Z,62.27
2019-04-07T06:12:09.819Z,62.20
2019-04-07T06:12:46.076Z,62.13
2019-04-07T06:13:17.490Z,62.01
2019-04-07T06:13:50.390Z,62.13
2019-04-07T06:14:21.789Z,62.29
2019-04-07T06:14:55.354Z,61.62
2019-04-07T06:15:29.103Z,61.62
2019-04-07T06:16:00.336Z,61.65
2019-04-07T06:16:35.946Z,61.53
2019-04-07T06:17:04.974Z,61.56
2019-04-07T06:17:36.750Z,61.25
2019-04-07T06:18:10.509Z,61.25
2019-04-07T06:18:44.568Z,61.08
2019-04-07T06:19:18.236Z,61.25
2019-04-07T06:19:51.586Z,61.00
2019-04-07T06:20:27.980Z,60.76
2019-04-07T06:20:59.465Z,60.73
2019-04-07T06:21:33.337Z,60.64
2019-04-07T06:22:08.701Z,60.69
2019-04-07T06:22:40.359Z,60.52
2019-04-07T06:23:14.590Z,60.55
2019-04-07T06:23:47.671Z,60.46
2019-04-07T06:24:22.316Z,60.42
2019-04-07T06:24:56.059Z,60.48
2019-04-07T06:25:34.734Z,60.44
2019-04-07T06:26:09.283Z,60.53
2019-04-07T06:26:41.505Z,60.56
2019-04-07T06:27:13.832Z,60.29
2019-04-07T06:27:46.778Z,60.29
2019-04-07T06:28:20.651Z,60.17
2019-04-07T06:28:57.041Z,60.22
2019-04-07T06:29:26.926Z,60.28
2019-04-07T06:30:00.826Z,60.45
2019-04-07T06:30:37.277Z,60.27
2019-04-07T06:31:11.734Z,60.27
2019-04-07T06:31:44.871Z,60.60
2019-04-07T06:32:16.626Z,60.54
2019-04-07T06:32:47.888Z,60.92
2019-04-07T06:33:19.772Z,60.92
2019-04-07T06:33:51.644Z,60.34
2019-04-07T06:34:26.556Z,60.42
2019-04-07T06:34:58.416Z,60.40
2019-04-07T06:35:33.583Z,60.64
2019-04-07T06:36:05.094Z,60.66
2019-04-07T06:36:38.682Z,60.26
2019-04-07T06:37:10.016Z,60.18
2019-04-07T06:37:41.814Z,60.08
2019-04-07T06:38:13.288Z,60.06
2019-04-07T06:38:50.353Z,59.99
2019-04-07T06:39:21.444Z,60.03
2019-04-07T06:39:52.809Z,59.92
2019-04-07T06:40:24.237Z,59.86
2019-04-07T06:41:00.096Z,59.77
2019-04-07T06:41:32.343Z,59.69
2019-04-07T06:42:03.953Z,59.62
2019-04-07T06:42:37.579Z,59.63
2019-04-07T06:43:09.327Z,59.63
2019-04-07T06:43:42.559Z,59.68
2019-04-07T06:44:19.879Z,59.55
2019-04-07T06:44:51.105Z,59.64
2019-04-07T06:45:24.713Z,59.40
2019-04-07T06:45:58.458Z,59.41
2019-04-07T06:46:41.233Z,59.38
2019-04-07T06:47:13.184Z,59.26
2019-04-07T06:47:49.771Z,58.97
2019-04-07T06:48:21.180Z,58.85
2019-04-07T06:48:57.141Z,58.97
2019-04-07T06:49:47.489Z,58.84
2019-04-07T06:50:47.248Z,58.26
2019-04-07T06:51:16.124Z,58.17
2019-04-07T06:51:52.778Z,58.06
2019-04-07T06:52:34.608Z,58.15
2019-04-07T06:53:10.562Z,57.95
2019-04-07T06:53:48.980Z,57.90
2019-04-07T06:54:29.816Z,57.80
2019-04-07T06:55:20.124Z,57.70
2019-04-07T06:55:51.398Z,57.54
2019-04-07T06:56:35.143Z,57.37
2019-04-07T06:57:23.398Z,57.03
2019-04-07T06:58:13.042Z,57.00
2019-04-07T06:58:44.936Z,56.70
2019-04-07T06:59:27.278Z,56.42
2019-04-07T07:00:03.742Z,56.34
2019-04-07T07:00:44.325Z,56.32
2019-04-07T07:01:25.775Z,56.44
2019-04-07T07:02:14.995Z,56.53
2019-04-07T07:02:59.654Z,56.55
2019-04-07T07:03:38.126Z,56.26
2019-04-07T07:04:13.174Z,55.82
2019-04-07T07:05:08.448Z,55.49
2019-04-07T07:06:00.731Z,55.72
2019-04-07T07:06:40.618Z,55.32
2019-04-07T07:07:15.939Z,55.42
2019-04-07T07:07:48.254Z,55.46
2019-04-07T07:08:45.201Z,55.43
2019-04-07T07:09:17.908Z,55.25
2019-04-07T07:09:51.916Z,55.55
2019-04-07T07:10:28.987Z,54.96
2019-04-07T07:11:27.558Z,55.23
2019-04-07T07:12:01.619Z,55.11
2019-04-07T07:12:45.007Z,54.81
2019-04-07T07:13:30.794Z,54.71
2019-04-07T07:14:30.056Z,54.20
2019-04-07T07:15:03.332Z,54.02
2019-04-07T07:15:40.476Z,53.93
2019-04-07T07:16:27.621Z,54.21
2019-04-07T07:17:17.007Z,53.96
2019-04-07T07:18:07.994Z,53.67
2019-04-07T07:18:44.719Z,53.23
2019-04-07T07:19:32.903Z,53.32
2019-04-07T07:20:27.703Z,53.08
2019-04-07T07:21:03.986Z,53.27
2019-04-07T07:21:50.167Z,52.97
2019-04-07T07:22:25.744Z,52.64
2019-04-07T07:23:03.889Z,52.31
2019-04-07T07:23:37.454Z,52.09
2019-04-07T07:24:08.689Z,51.97
2019-04-07T07:24:39.871Z,51.68
2019-04-07T07:25:12.390Z,51.90
2019-04-07T07:25:44.294Z,52.02
2019-04-07T07:26:17.168Z,51.69
2019-04-07T07:26:48.435Z,52.80
2019-04-07T07:27:19.615Z,52.34
2019-04-07T07:27:53.374Z,52.11
2019-04-07T07:28:24.619Z,51.79
2019-04-07T07:28:56.031Z,51.81
2019-04-07T07:29:27.310Z,51.34
2019-04-07T07:30:00.405Z,51.76
2019-04-07T07:30:32.395Z,51.78
2019-04-07T07:31:04.354Z,51.52
2019-04-07T07:31:35.806Z,51.22
2019-04-07T07:32:07.010Z,51.36
2019-04-07T07:32:38.927Z,51.79
2019-04-07T07:33:11.165Z,51.25
2019-04-07T07:33:43.660Z,51.37
2019-04-07T07:34:16.389Z,51.18
2019-04-07T07:34:47.804Z,50.74
2019-04-07T07:35:19.149Z,51.65
2019-04-07T07:35:52.688Z,51.03
2019-04-07T07:36:25.394Z,51.03
2019-04-07T07:36:58.594Z,51.35
2019-04-07T07:37:30.105Z,50.88
2019-04-07T07:38:01.382Z,50.99
2019-04-07T07:38:33.428Z,51.24
2019-04-07T07:39:10.266Z,50.49
2019-04-07T07:39:45.146Z,50.89
2019-04-07T07:40:19.286Z,50.30